Time;durP1;ratioP1;P1;durP2;ratioP2;P2;SDS_P1;SDS_P2;PMS_P1;PMS_P2;Temp;Humidity;BMP_temperature;BMP_pressure;BME280_temperature;BME280_humidity;BME280_pressure;Samples;Min_cycle;Max_cycle;Signal;HPM_P1;HPM_P2
2023/01/25 00:00:50;;;;;;;25.47;15.83;;;3.00;99.90;;;;;;4991673;28;20218;-72
2023/01/25 00:03:16;;;;;;;24.63;14.10;;;3.00;99.90;;;;;;4983639;28;20215;-72
2023/01/25 00:05:42;;;;;;;24.40;13.03;;;3.20;99.90;;;;;;4984102;28;20673;-72
2023/01/25 00:08:07;;;;;;;33.17;16.33;;;3.20;99.90;;;;;;4971892;28;20537;-72
2023/01/25 00:10:33;;;;;;;33.13;16.07;;;3.10;99.90;;;;;;4987817;28;20271;-72
2023/01/25 00:12:59;;;;;;;30.13;15.47;;;3.00;99.90;;;;;;4990396;28;20200;-72
2023/01/25 00:15:25;;;;;;;35.17;17.27;;;3.10;99.90;;;;;;4976315;28;20534;-72
2023/01/25 00:17:50;;;;;;;34.07;16.33;;;3.20;99.90;;;;;;4981428;28;20642;-71
2023/01/25 00:20:16;;;;;;;25.00;14.03;;;3.10;99.90;;;;;;4972529;28;20188;-72
2023/01/25 00:22:41;;;;;;;31.07;15.47;;;3.10;99.90;;;;;;4972757;28;20250;-72
2023/01/25 00:25:08;;;;;;;31.77;16.00;;;3.20;99.90;;;;;;4974581;28;20216;-72
2023/01/25 00:27:33;;;;;;;31.90;15.97;;;3.10;99.90;;;;;;4976002;28;20192;-72
2023/01/25 00:29:59;;;;;;;28.93;13.90;;;3.10;99.90;;;;;;4980398;28;20185;-72
2023/01/25 00:32:35;;;;;;;30.40;15.77;;;3.10;99.90;;;;;;4973230;28;20673;-72
2023/01/25 00:35:00;;;;;;;35.23;17.07;;;3.00;99.90;;;;;;4980963;28;20199;-72
2023/01/25 00:37:36;;;;;;;40.40;18.83;;;3.10;99.90;;;;;;4961114;28;20201;-72
2023/01/25 00:40:02;;;;;;;34.40;15.83;;;2.90;99.90;;;;;;4974442;28;20192;-72
2023/01/25 00:42:28;;;;;;;36.47;17.20;;;3.00;99.90;;;;;;4979820;28;20217;-72
2023/01/25 00:44:53;;;;;;;30.60;16.20;;;3.00;99.90;;;;;;4974232;28;20713;-72
2023/01/25 00:47:19;;;;;;;28.30;15.70;;;3.00;99.90;;;;;;4988554;28;20684;-72
2023/01/25 00:49:45;;;;;;;30.67;16.10;;;2.80;99.90;;;;;;4974568;28;20204;-72
2023/01/25 00:52:11;;;;;;;31.10;15.63;;;3.10;99.90;;;;;;4977782;28;20227;-72
2023/01/25 00:54:37;;;;;;;29.97;16.70;;;3.10;99.90;;;;;;4974358;28;20536;-72
2023/01/25 00:57:02;;;;;;;33.20;17.13;;;3.20;99.90;;;;;;4973515;28;20615;-72
2023/01/25 00:59:28;;;;;;;34.47;16.53;;;3.20;99.90;;;;;;4973719;28;20663;-72
2023/01/25 01:01:54;;;;;;;28.13;16.13;;;3.30;99.90;;;;;;4978535;28;20240;-72
2023/01/25 01:04:23;;;;;;;35.10;15.40;;;3.10;99.90;;;;;;4983495;28;20668;-71
2023/01/25 01:06:51;;;;;;;26.17;14.37;;;3.00;99.90;;;;;;4962704;28;20200;-72
2023/01/25 01:09:18;;;;;;;30.63;16.67;;;3.00;99.90;;;;;;4973272;28;20197;-72
2023/01/25 01:11:44;;;;;;;22.97;13.20;;;2.80;99.90;;;;;;4985194;28;20563;-72
2023/01/25 01:14:10;;;;;;;32.03;17.03;;;2.60;99.90;;;;;;4976757;28;20184;-72
2023/01/25 01:16:36;;;;;;;31.70;17.77;;;2.60;99.90;;;;;;4973852;28;20199;-72
2023/01/25 01:19:01;;;;;;;30.33;15.83;;;2.80;99.90;;;;;;4973821;28;21143;-72
2023/01/25 01:21:27;;;;;;;35.10;17.60;;;3.10;99.90;;;;;;4986720;28;20573;-72
2023/01/25 01:23:54;;;;;;;33.43;16.40;;;3.20;99.90;;;;;;4973041;28;20647;-72
2023/01/25 01:26:19;;;;;;;31.73;17.53;;;3.30;99.90;;;;;;4977043;28;20230;-72
2023/01/25 01:28:45;;;;;;;32.57;15.80;;;3.30;99.90;;;;;;4974323;28;20197;-72
2023/01/25 01:31:20;;;;;;;35.63;18.17;;;3.20;99.90;;;;;;4981939;28;20197;-72
2023/01/25 01:33:53;;;;;;;28.83;15.83;;;3.10;99.90;;;;;;4973860;28;20203;-72
2023/01/25 01:36:22;;;;;;;32.23;16.83;;;3.00;99.90;;;;;;4977784;28;20608;-72
2023/01/25 01:38:47;;;;;;;33.50;17.13;;;2.80;99.90;;;;;;4975705;28;20184;-72
2023/01/25 01:41:14;;;;;;;34.70;18.50;;;2.90;99.90;;;;;;4976583;28;20196;-72
2023/01/25 01:43:40;;;;;;;32.37;16.40;;;3.00;99.90;;;;;;4977215;28;20221;-72
2023/01/25 01:46:19;;;;;;;32.27;15.47;;;2.60;99.90;;;;;;4977032;28;20185;-72
2023/01/25 01:48:50;;;;;;;25.97;16.03;;;2.70;99.90;;;;;;4986219;28;20223;-72
2023/01/25 01:51:17;;;;;;;30.87;15.63;;;2.80;99.90;;;;;;4990465;28;20191;-72
2023/01/25 01:53:57;;;;;;;30.00;15.33;;;2.90;99.90;;;;;;4976983;28;20220;-72
2023/01/25 01:56:31;;;;;;;30.70;16.13;;;2.60;99.90;;;;;;4993953;28;20183;-71
2023/01/25 01:58:59;;;;;;;28.90;15.90;;;2.40;99.90;;;;;;4987873;28;20208;-72
2023/01/25 02:01:24;;;;;;;30.40;15.33;;;2.20;99.90;;;;;;4976458;28;20704;-72
2023/01/25 02:03:51;;;;;;;32.03;16.97;;;2.30;99.90;;;;;;4977549;28;20271;-72
2023/01/25 02:06:31;;;;;;;35.67;16.27;;;2.40;99.90;;;;;;4987976;28;20216;-71
2023/01/25 02:08:58;;;;;;;30.33;16.93;;;2.30;99.90;;;;;;4989603;28;20188;-72
2023/01/25 02:11:26;;;;;;;30.30;17.33;;;2.40;99.90;;;;;;4988602;28;20189;-72
2023/01/25 02:13:53;;;;;;;28.37;15.37;;;2.70;99.90;;;;;;4979039;28;20193;-72
2023/01/25 02:16:24;;;;;;;39.57;17.23;;;2.50;99.90;;;;;;4988827;28;20184;-72
2023/01/25 02:18:52;;;;;;;32.40;16.13;;;2.50;99.90;;;;;;4991357;28;20188;-71
2023/01/25 02:21:17;;;;;;;25.00;15.30;;;2.50;99.90;;;;;;4990943;28;20255;-72
2023/01/25 02:23:56;;;;;;;29.53;16.47;;;2.50;99.90;;;;;;4985758;28;20247;-72
2023/01/25 02:26:23;;;;;;;30.73;15.97;;;2.50;99.90;;;;;;4986153;28;20184;-72
2023/01/25 02:28:57;;;;;;;35.47;17.83;;;2.40;99.90;;;;;;4986092;28;20188;-72
2023/01/25 02:31:23;;;;;;;30.10;15.43;;;2.40;99.90;;;;;;4975666;28;20193;-71
2023/01/25 02:33:48;;;;;;;30.47;14.63;;;2.20;99.90;;;;;;4989013;28;20195;-72
2023/01/25 02:36:35;;;;;;;35.50;18.33;;;2.20;99.90;;;;;;4984761;28;20215;-72
2023/01/25 02:39:12;;;;;;;27.53;15.00;;;2.30;99.90;;;;;;4985501;28;20192;-71
2023/01/25 02:41:39;;;;;;;27.00;14.57;;;2.30;99.90;;;;;;4978410;28;20209;-72
2023/01/25 02:44:24;;;;;;;31.37;15.23;;;2.50;99.90;;;;;;4991193;28;20188;-72
2023/01/25 02:46:50;;;;;;;27.83;14.43;;;2.60;99.90;;;;;;4987754;28;20184;-72
2023/01/25 02:49:16;;;;;;;25.57;15.07;;;2.70;99.90;;;;;;4990879;28;20180;-72
2023/01/25 02:51:47;;;;;;;34.70;17.10;;;2.60;99.90;;;;;;4992744;28;20351;-71
2023/01/25 02:54:15;;;;;;;35.43;15.90;;;2.40;99.90;;;;;;4977042;28;20173;-72
2023/01/25 02:56:41;;;;;;;41.97;17.23;;;2.40;99.90;;;;;;4975828;28;20216;-72
2023/01/25 02:59:07;;;;;;;32.40;15.07;;;2.60;99.90;;;;;;4989476;28;20224;-71
2023/01/25 03:01:38;;;;;;;28.20;14.27;;;2.70;99.90;;;;;;4983757;28;20186;-72
2023/01/25 03:04:05;;;;;;;25.53;14.33;;;2.60;99.90;;;;;;4989783;28;20193;-72
2023/01/25 03:06:31;;;;;;;25.13;15.07;;;2.50;99.90;;;;;;4980770;28;20193;-72
2023/01/25 03:08:57;;;;;;;27.33;16.10;;;2.10;99.90;;;;;;4969935;28;20230;-71
2023/01/25 03:11:23;;;;;;;31.87;14.43;;;2.10;99.90;;;;;;4988043;28;20239;-71
2023/01/25 03:13:49;;;;;;;36.00;15.93;;;2.10;99.90;;;;;;4974678;28;20188;-71
2023/01/25 03:16:15;;;;;;;28.93;16.20;;;2.40;99.90;;;;;;4992726;28;20188;-71
2023/01/25 03:18:41;;;;;;;34.70;15.43;;;2.50;99.90;;;;;;4992482;28;20241;-71
2023/01/25 03:21:13;;;;;;;35.20;18.47;;;2.50;99.90;;;;;;4976536;28;20288;-71
2023/01/25 03:23:39;;;;;;;24.50;15.73;;;2.30;99.90;;;;;;4975837;28;20208;-72
2023/01/25 03:26:12;;;;;;;33.87;14.87;;;2.20;99.90;;;;;;4974542;28;20192;-72
2023/01/25 03:28:40;;;;;;;31.77;15.53;;;2.20;99.90;;;;;;4989549;28;20191;-72
2023/01/25 03:31:07;;;;;;;30.40;15.83;;;2.30;99.90;;;;;;4975197;28;20526;-72
2023/01/25 03:33:33;;;;;;;28.50;15.13;;;2.30;99.90;;;;;;4980122;28;20195;-71
2023/01/25 03:35:59;;;;;;;31.33;15.93;;;2.40;99.90;;;;;;4977751;28;20192;-72
2023/01/25 03:38:26;;;;;;;25.63;13.83;;;2.30;99.90;;;;;;4989423;28;20193;-72
2023/01/25 03:40:52;;;;;;;32.57;13.83;;;2.40;99.90;;;;;;4989171;28;20189;-72
2023/01/25 03:43:17;;;;;;;28.50;15.00;;;2.30;99.90;;;;;;4982114;28;20216;-72
2023/01/25 03:45:43;;;;;;;34.67;18.13;;;2.20;99.90;;;;;;4972688;28;20660;-72
2023/01/25 03:48:09;;;;;;;31.03;16.63;;;2.40;99.90;;;;;;4973960;28;20232;-71
2023/01/25 03:50:35;;;;;;;30.10;16.40;;;2.60;99.90;;;;;;4973358;28;20189;-72
2023/01/25 03:53:30;;;;;;;34.03;15.83;;;2.70;99.90;;;;;;4972572;28;20205;-72
2023/01/25 03:56:04;;;;;;;25.43;14.60;;;2.30;99.90;;;;;;4987024;28;20188;-72
2023/01/25 03:58:30;;;;;;;27.53;14.57;;;2.20;99.90;;;;;;4976409;28;20676;-72
2023/01/25 04:00:58;;;;;;;36.23;16.67;;;2.30;99.90;;;;;;4973265;28;20189;-72
2023/01/25 04:03:24;;;;;;;29.67;15.33;;;2.40;99.90;;;;;;4973295;28;20219;-71
2023/01/25 04:05:51;;;;;;;25.43;14.30;;;2.40;99.90;;;;;;4984673;28;20192;-71
2023/01/25 04:08:17;;;;;;;26.60;14.37;;;2.40;99.90;;;;;;4978497;28;20196;-72
2023/01/25 04:10:43;;;;;;;29.13;16.70;;;2.50;99.90;;;;;;4976985;28;20193;-72
2023/01/25 04:13:09;;;;;;;30.93;15.50;;;2.40;99.90;;;;;;4981251;28;20196;-72
2023/01/25 04:15:35;;;;;;;26.87;15.73;;;2.40;99.90;;;;;;4987949;28;20227;-72
2023/01/25 04:18:01;;;;;;;35.23;16.23;;;2.50;99.90;;;;;;4974717;28;20234;-72
2023/01/25 04:20:26;;;;;;;25.77;16.73;;;2.40;99.90;;;;;;4975201;28;20193;-72
2023/01/25 04:22:52;;;;;;;29.03;15.73;;;2.60;99.90;;;;;;4989216;28;20208;-72
2023/01/25 04:25:18;;;;;;;27.13;14.67;;;2.60;99.90;;;;;;4984770;28;20203;-72
2023/01/25 04:27:43;;;;;;;29.67;15.93;;;2.60;99.90;;;;;;4988608;28;20215;-72
2023/01/25 04:30:10;;;;;;;29.60;14.50;;;2.50;99.90;;;;;;4973061;28;20608;-71
2023/01/25 04:32:36;;;;;;;31.37;15.77;;;2.50;99.90;;;;;;4983185;28;20208;-71
2023/01/25 04:35:01;;;;;;;26.67;15.03;;;2.30;99.90;;;;;;4973911;28;20216;-71
2023/01/25 04:37:27;;;;;;;30.83;14.90;;;2.30;99.90;;;;;;4980045;28;20267;-71
2023/01/25 04:39:53;;;;;;;30.70;14.63;;;2.30;99.90;;;;;;4977160;28;20176;-72
2023/01/25 04:42:18;;;;;;;30.50;15.93;;;2.20;99.90;;;;;;4976323;28;20217;-72
2023/01/25 04:44:44;;;;;;;32.80;17.20;;;2.00;99.90;;;;;;4973449;28;20189;-72
2023/01/25 04:47:10;;;;;;;31.47;15.30;;;2.10;99.90;;;;;;4993723;28;20302;-72
2023/01/25 04:49:35;;;;;;;31.87;16.17;;;2.30;99.90;;;;;;4975567;28;20188;-72
2023/01/25 04:52:01;;;;;;;39.93;17.47;;;2.50;99.90;;;;;;4973360;28;20215;-72
2023/01/25 04:54:27;;;;;;;30.87;15.03;;;2.40;99.90;;;;;;4981695;28;20195;-72
2023/01/25 04:56:52;;;;;;;30.07;14.73;;;2.40;99.90;;;;;;4980500;28;20222;-72
2023/01/25 04:59:18;;;;;;;28.93;16.13;;;2.10;99.90;;;;;;4989638;28;20641;-72
2023/01/25 05:01:44;;;;;;;25.77;14.67;;;1.70;99.90;;;;;;4981810;28;20582;-72
2023/01/25 05:04:09;;;;;;;28.50;16.53;;;1.70;99.90;;;;;;4988016;28;20319;-72
2023/01/25 05:06:35;;;;;;;27.13;16.53;;;1.90;99.90;;;;;;4981671;28;20275;-71
2023/01/25 05:09:01;;;;;;;27.70;15.43;;;2.20;99.90;;;;;;4986496;28;20199;-71
2023/01/25 05:11:26;;;;;;;30.50;14.23;;;2.40;99.90;;;;;;4975528;28;20196;-71
2023/01/25 05:13:53;;;;;;;29.80;15.47;;;2.40;99.90;;;;;;4977202;28;20200;-72
2023/01/25 05:16:19;;;;;;;29.40;17.33;;;2.30;99.90;;;;;;4995754;28;20199;-72
2023/01/25 05:18:45;;;;;;;30.57;15.00;;;2.30;99.90;;;;;;4990186;28;20196;-72
2023/01/25 05:21:56;;;;;;;29.50;15.50;;;2.50;99.90;;;;;;4977275;28;20192;-72
2023/01/25 05:23:56;;;;;;;29.87;15.90;;;2.50;99.90;;;;;;4977081;28;20214;-72
2023/01/25 05:29:08;;;;;;;29.03;14.33;;;2.50;99.90;;;;;;4983767;28;20685;-72
2023/01/25 05:31:34;;;;;;;38.27;18.60;;;2.50;99.90;;;;;;4979419;28;20283;-74
2023/01/25 05:33:59;;;;;;;22.13;13.83;;;2.20;99.90;;;;;;4977472;28;20275;-71
2023/01/25 05:36:25;;;;;;;30.40;17.53;;;2.00;99.90;;;;;;4986574;28;20200;-72
2023/01/25 05:38:51;;;;;;;32.70;16.73;;;1.90;99.90;;;;;;4979617;28;20199;-72
2023/01/25 05:41:17;;;;;;;30.27;15.40;;;1.90;99.90;;;;;;4986234;28;20188;-72
2023/01/25 05:43:43;;;;;;;29.70;16.33;;;2.00;99.90;;;;;;4991226;28;20263;-74
2023/01/25 05:46:09;;;;;;;30.00;14.37;;;1.80;99.90;;;;;;4980907;28;20220;-72
2023/01/25 05:48:34;;;;;;;34.13;17.10;;;1.70;99.90;;;;;;4978297;28;20212;-72
2023/01/25 05:51:00;;;;;;;30.10;13.77;;;1.90;99.90;;;;;;4982454;28;20275;-72
2023/01/25 05:53:27;;;;;;;27.03;16.07;;;2.20;99.90;;;;;;4985258;28;20213;-72
2023/01/25 05:55:53;;;;;;;29.57;17.23;;;2.30;99.90;;;;;;4985225;28;20188;-72
2023/01/25 05:58:18;;;;;;;27.17;16.20;;;2.20;99.90;;;;;;4969969;28;20688;-72
2023/01/25 06:00:44;;;;;;;33.30;16.83;;;2.30;99.90;;;;;;4989889;28;20195;-72
2023/01/25 06:03:09;;;;;;;31.20;16.27;;;2.10;99.90;;;;;;4978883;28;20223;-72
2023/01/25 06:05:35;;;;;;;31.87;16.97;;;2.10;99.90;;;;;;4968470;28;20196;-72
2023/01/25 06:08:01;;;;;;;29.73;16.33;;;2.20;99.90;;;;;;4990925;28;20653;-72
2023/01/25 06:10:26;;;;;;;32.10;17.33;;;2.30;99.90;;;;;;4987077;28;20202;-72
2023/01/25 06:12:58;;;;;;;35.63;16.93;;;2.30;99.90;;;;;;4976137;28;20293;-72
2023/01/25 06:15:24;;;;;;;37.20;18.17;;;2.30;99.90;;;;;;4991695;28;20193;-72
2023/01/25 06:17:54;;;;;;;26.80;15.90;;;2.10;99.90;;;;;;4982862;28;20185;-72
2023/01/25 06:20:20;;;;;;;28.60;17.07;;;2.40;99.90;;;;;;4976569;28;20208;-72
2023/01/25 06:22:51;;;;;;;34.40;18.37;;;2.50;99.90;;;;;;4992234;28;20212;-72
2023/01/25 06:25:17;;;;;;;28.17;16.03;;;2.30;99.90;;;;;;4966294;28;20286;-72
2023/01/25 06:27:43;;;;;;;27.23;14.40;;;2.30;99.90;;;;;;4982586;28;20206;-72
2023/01/25 06:30:10;;;;;;;27.47;16.87;;;2.40;99.90;;;;;;4987131;28;20203;-72
2023/01/25 06:32:35;;;;;;;32.60;17.63;;;2.30;99.90;;;;;;4978087;28;20566;-72
2023/01/25 06:35:02;;;;;;;34.17;17.00;;;2.30;99.90;;;;;;4978262;28;20203;-72
2023/01/25 06:37:27;;;;;;;35.30;17.07;;;2.20;99.90;;;;;;4982258;28;20275;-71
2023/01/25 06:39:53;;;;;;;33.83;17.53;;;2.20;99.90;;;;;;4977865;28;20291;-71
2023/01/25 06:42:19;;;;;;;36.77;18.07;;;2.30;99.90;;;;;;4991484;28;20800;-71
2023/01/25 06:44:44;;;;;;;34.03;16.50;;;2.30;99.90;;;;;;4990312;28;20196;-71
2023/01/25 06:47:11;;;;;;;34.00;16.63;;;2.30;99.90;;;;;;4987555;28;20191;-71
2023/01/25 06:49:37;;;;;;;35.90;17.80;;;2.30;99.90;;;;;;4974972;28;20545;-71
2023/01/25 06:52:03;;;;;;;34.83;17.07;;;2.30;99.90;;;;;;4966928;28;20199;-71
2023/01/25 06:54:29;;;;;;;30.23;16.13;;;2.30;99.90;;;;;;4980010;28;20219;-72
2023/01/25 06:56:54;;;;;;;29.40;15.90;;;2.30;99.90;;;;;;4976236;28;20673;-71
2023/01/25 06:59:20;;;;;;;34.20;17.00;;;2.30;99.90;;;;;;4976652;28;20640;-72
2023/01/25 07:01:46;;;;;;;37.73;18.37;;;2.40;99.90;;;;;;4993703;28;20223;-72
2023/01/25 07:04:11;;;;;;;35.40;17.60;;;2.40;99.90;;;;;;4980363;28;20216;-72
2023/01/25 07:06:38;;;;;;;37.07;16.90;;;2.40;99.90;;;;;;4994439;28;20617;-72
2023/01/25 07:09:05;;;;;;;32.93;16.33;;;2.60;99.90;;;;;;4983103;28;20196;-71
2023/01/25 07:11:31;;;;;;;33.37;15.87;;;2.70;99.90;;;;;;4974288;28;20228;-71
2023/01/25 07:13:57;;;;;;;42.57;17.77;;;2.70;99.90;;;;;;4983690;28;20716;-71
2023/01/25 07:16:22;;;;;;;30.07;15.37;;;2.70;99.90;;;;;;4992487;28;20188;-72
2023/01/25 07:18:48;;;;;;;34.50;18.00;;;2.70;99.90;;;;;;4981182;28;20676;-71
2023/01/25 07:21:22;;;;;;;35.90;17.83;;;2.50;99.90;;;;;;4975024;28;20184;-72
2023/01/25 07:23:49;;;;;;;34.67;16.37;;;2.50;99.90;;;;;;4979910;28;20227;-72
2023/01/25 07:26:21;;;;;;;27.07;15.70;;;2.50;99.90;;;;;;4980216;28;20192;-71
2023/01/25 07:28:47;;;;;;;36.00;17.83;;;2.60;99.90;;;;;;4978937;28;20267;-72
2023/01/25 07:31:14;;;;;;;34.60;17.73;;;2.70;99.90;;;;;;4987726;28;20199;-71
2023/01/25 07:33:40;;;;;;;34.23;18.27;;;2.60;99.90;;;;;;4973452;28;20344;-72
2023/01/25 07:36:07;;;;;;;38.80;18.07;;;2.60;99.90;;;;;;4989265;28;20557;-71
2023/01/25 07:38:34;;;;;;;35.80;17.97;;;2.60;99.90;;;;;;4962467;28;20276;-72
2023/01/25 07:41:00;;;;;;;38.97;18.13;;;2.50;99.90;;;;;;4984360;28;20193;-71
2023/01/25 07:43:26;;;;;;;40.63;20.40;;;2.50;99.90;;;;;;4986373;28;20684;-71
2023/01/25 07:45:52;;;;;;;35.73;16.73;;;2.50;99.90;;;;;;4986287;28;20259;-72
2023/01/25 07:48:19;;;;;;;42.03;19.53;;;2.70;99.90;;;;;;4975347;28;20199;-71
2023/01/25 07:50:48;;;;;;;39.10;18.73;;;2.70;99.90;;;;;;4987922;28;20195;-72
2023/01/25 07:53:14;;;;;;;33.33;18.67;;;2.80;99.90;;;;;;4993523;28;20667;-72
2023/01/25 07:55:40;;;;;;;33.53;16.07;;;2.80;99.90;;;;;;4974761;28;20645;-71
2023/01/25 07:58:14;;;;;;;31.23;17.07;;;2.70;99.90;;;;;;5121122;27;20583;-72
2023/01/25 08:00:40;;;;;;;40.83;18.23;;;2.60;99.90;;;;;;5108265;28;20190;-71
2023/01/25 08:03:06;;;;;;;29.03;16.27;;;2.50;99.90;;;;;;5091155;28;20189;-71
2023/01/25 08:05:32;;;;;;;31.37;16.00;;;2.50;99.90;;;;;;5101582;28;20180;-71
2023/01/25 08:07:58;;;;;;;37.00;17.73;;;2.40;99.90;;;;;;5127223;27;20195;-71
2023/01/25 08:10:23;;;;;;;28.57;16.23;;;2.40;99.90;;;;;;5109533;28;20240;-72
2023/01/25 08:12:49;;;;;;;34.43;17.87;;;2.40;99.90;;;;;;5096486;28;20198;-72
2023/01/25 08:15:15;;;;;;;38.07;17.23;;;2.30;99.90;;;;;;5110055;28;20188;-71
2023/01/25 08:17:40;;;;;;;39.73;17.40;;;2.40;99.90;;;;;;5098891;28;20208;-71
2023/01/25 08:20:07;;;;;;;38.37;18.67;;;2.40;99.90;;;;;;5137170;27;20212;-71
2023/01/25 08:22:33;;;;;;;48.30;21.23;;;2.30;99.90;;;;;;5105164;28;20199;-71
2023/01/25 08:25:00;;;;;;;36.43;16.63;;;2.40;99.90;;;;;;5109657;28;20180;-71
2023/01/25 08:27:27;;;;;;;40.37;20.70;;;2.50;99.90;;;;;;5106567;28;20632;-72
2023/01/25 08:29:53;;;;;;;39.43;18.67;;;2.50;99.90;;;;;;5108743;28;20649;-72
2023/01/25 08:32:19;;;;;;;39.27;19.07;;;2.40;99.90;;;;;;5088923;28;20250;-73
2023/01/25 08:34:46;;;;;;;38.73;18.47;;;2.70;99.90;;;;;;5131557;27;20223;-72
2023/01/25 08:37:11;;;;;;;38.40;17.13;;;2.80;99.90;;;;;;5103679;28;20287;-73
2023/01/25 08:39:37;;;;;;;39.40;19.60;;;2.70;99.90;;;;;;5097058;28;20692;-73
2023/01/25 08:42:03;;;;;;;40.03;19.57;;;2.60;99.90;;;;;;5141606;27;20187;-73
2023/01/25 08:44:28;;;;;;;33.77;18.27;;;2.60;99.90;;;;;;5108010;28;20188;-72
2023/01/25 08:46:54;;;;;;;41.70;19.40;;;2.60;99.90;;;;;;5108292;28;20219;-72
2023/01/25 08:49:20;;;;;;;39.13;18.63;;;2.60;99.90;;;;;;5108934;28;20199;-72
2023/01/25 08:51:47;;;;;;;37.53;17.33;;;2.60;99.90;;;;;;5107979;28;20190;-72
2023/01/25 08:54:12;;;;;;;41.30;19.50;;;2.80;99.90;;;;;;5107568;28;20578;-72
2023/01/25 08:56:39;;;;;;;41.33;19.67;;;2.80;99.90;;;;;;5108560;28;20262;-73
2023/01/25 08:59:06;;;;;;;37.63;19.33;;;2.70;99.90;;;;;;5106987;28;20203;-72
2023/01/25 09:01:31;;;;;;;35.97;19.53;;;2.90;99.90;;;;;;5107399;28;20192;-72
2023/01/25 09:03:57;;;;;;;38.70;18.40;;;2.80;99.90;;;;;;5094789;28;20634;-72
2023/01/25 09:06:23;;;;;;;38.00;18.70;;;2.70;99.90;;;;;;5103425;28;20199;-72
2023/01/25 09:08:48;;;;;;;31.43;17.33;;;2.60;99.90;;;;;;5092477;28;20233;-73
2023/01/25 09:11:17;;;;;;;33.43;16.80;;;2.70;99.90;;;;;;5094193;28;20464;-72
2023/01/25 09:13:43;;;;;;;35.43;17.63;;;2.80;99.90;;;;;;5092702;28;20188;-72
2023/01/25 09:16:21;;;;;;;34.73;16.80;;;2.70;99.90;;;;;;5121842;27;20209;-72
2023/01/25 09:18:47;;;;;;;33.70;18.07;;;2.70;99.90;;;;;;5085546;28;20267;-73
2023/01/25 09:21:16;;;;;;;39.03;19.17;;;2.90;99.90;;;;;;5076324;28;20280;-72
2023/01/25 09:23:47;;;;;;;38.40;19.07;;;2.90;99.90;;;;;;5090540;28;20550;-72
2023/01/25 09:26:14;;;;;;;44.53;20.83;;;3.00;99.90;;;;;;5090734;28;20197;-72
2023/01/25 09:28:41;;;;;;;30.10;16.83;;;3.00;99.90;;;;;;5108008;27;20196;-72
2023/01/25 09:31:09;;;;;;;31.70;16.90;;;2.90;99.90;;;;;;5081529;28;20239;-72
2023/01/25 09:33:36;;;;;;;43.20;18.90;;;2.90;99.90;;;;;;5092808;28;20328;-71
2023/01/25 09:36:02;;;;;;;40.67;19.30;;;2.80;99.90;;;;;;5110348;28;20242;-71
2023/01/25 09:38:28;;;;;;;41.43;18.50;;;2.80;99.90;;;;;;5092300;28;20644;-72
2023/01/25 09:41:03;;;;;;;33.87;18.27;;;2.80;99.90;;;;;;5112944;27;20181;-72
2023/01/25 09:44:00;;;;;;;39.63;18.50;;;2.90;99.90;;;;;;5100152;28;20191;-72
2023/01/25 09:46:47;;;;;;;32.07;16.77;;;2.70;99.90;;;;;;5078847;28;20545;-71
2023/01/25 09:49:42;;;;;;;32.87;17.67;;;2.70;99.90;;;;;;5084723;28;20189;-69
2023/01/25 09:52:31;;;;;;;43.23;18.00;;;2.60;99.90;;;;;;5092463;28;20250;-70
2023/01/25 09:54:57;;;;;;;38.10;17.50;;;2.80;99.90;;;;;;5094248;28;20279;-69
2023/01/25 09:57:26;;;;;;;36.73;18.27;;;3.00;99.90;;;;;;5091666;28;20391;-70
2023/01/25 09:59:53;;;;;;;48.97;20.17;;;3.00;99.90;;;;;;5088440;28;20192;-70
2023/01/25 10:03:02;;;;;;;35.97;16.87;;;2.90;99.90;;;;;;5087905;28;20264;-71
2023/01/25 10:05:36;;;;;;;34.87;17.73;;;2.80;99.90;;;;;;5093562;28;20652;-68
2023/01/25 10:08:24;;;;;;;41.93;18.33;;;2.90;99.90;;;;;;5090017;28;20201;-70
2023/01/25 10:11:03;;;;;;;42.70;18.53;;;2.90;99.90;;;;;;5088018;28;20181;-70
2023/01/25 10:13:30;;;;;;;35.57;18.30;;;2.80;99.90;;;;;;5085015;28;20169;-71
2023/01/25 10:16:13;;;;;;;39.57;16.90;;;2.80;99.90;;;;;;5092338;28;20552;-66
2023/01/25 10:19:01;;;;;;;37.00;17.17;;;2.90;99.90;;;;;;5090789;28;20199;-74
2023/01/25 10:21:34;;;;;;;41.97;19.33;;;3.10;99.90;;;;;;5084128;28;20181;-71
2023/01/25 10:24:23;;;;;;;42.30;19.73;;;3.00;99.90;;;;;;5089508;28;20184;-72
2023/01/25 10:26:56;;;;;;;42.10;19.00;;;2.90;99.90;;;;;;5078407;28;20237;-68
2023/01/25 10:29:27;;;;;;;33.47;18.07;;;2.90;99.90;;;;;;5084102;28;20186;-71
2023/01/25 10:32:01;;;;;;;41.73;18.73;;;3.00;99.90;;;;;;5092127;28;20177;-71
2023/01/25 10:34:37;;;;;;;47.27;19.73;;;3.10;99.90;;;;;;5080290;28;20177;-77
2023/01/25 10:37:40;;;;;;;36.73;18.77;;;3.00;99.90;;;;;;5079551;28;20766;-72
2023/01/25 10:40:12;;;;;;;31.57;17.53;;;3.10;99.90;;;;;;5073226;28;20196;-72
2023/01/25 10:42:49;;;;;;;40.73;18.30;;;3.50;99.90;;;;;;5074093;28;20208;-74
2023/01/25 10:45:16;;;;;;;43.83;20.20;;;3.20;99.90;;;;;;5117652;27;20271;-71
2023/01/25 10:47:46;;;;;;;37.83;19.23;;;3.00;99.90;;;;;;5078708;28;20196;-72
2023/01/25 10:50:46;;;;;;;35.77;17.63;;;2.90;99.90;;;;;;5084896;28;20219;-73
2023/01/25 10:53:36;;;;;;;35.43;18.60;;;2.70;99.90;;;;;;5084408;28;20190;-74
2023/01/25 10:56:10;;;;;;;46.20;17.47;;;2.80;99.90;;;;;;5085540;28;20217;-73
2023/01/25 10:58:41;;;;;;;44.70;19.43;;;3.00;99.90;;;;;;5081727;28;20230;-71
2023/01/25 11:01:23;;;;;;;39.87;19.30;;;3.10;99.90;;;;;;5089029;28;20578;-73
2023/01/25 11:03:49;;;;;;;42.90;18.87;;;3.20;99.90;;;;;;5077044;28;20625;-71
2023/01/25 11:06:34;;;;;;;38.47;17.53;;;3.30;99.90;;;;;;5069085;28;20224;-72
2023/01/25 11:09:01;;;;;;;47.20;18.87;;;3.20;99.90;;;;;;5087826;28;20179;-72
2023/01/25 11:11:38;;;;;;;54.10;21.10;;;3.00;99.90;;;;;;5091034;28;20184;-74
2023/01/25 11:14:17;;;;;;;45.63;18.93;;;3.00;99.90;;;;;;5087651;28;20195;-72
2023/01/25 11:16:46;;;;;;;44.40;20.03;;;3.30;99.90;;;;;;5070997;28;20263;-72
2023/01/25 11:19:32;;;;;;;50.17;21.30;;;3.30;99.90;;;;;;5095995;28;20688;-73
2023/01/25 11:21:59;;;;;;;52.37;20.67;;;3.30;99.90;;;;;;5074186;28;20184;-70
2023/01/25 11:24:31;;;;;;;44.17;19.33;;;3.30;99.90;;;;;;5080355;28;20183;-72
2023/01/25 11:27:27;;;;;;;47.30;19.93;;;3.30;99.90;;;;;;5125239;27;20188;-71
2023/01/25 11:30:17;;;;;;;41.93;19.13;;;3.50;99.90;;;;;;5082574;28;20306;-71
2023/01/25 11:32:43;;;;;;;42.47;20.67;;;3.50;99.90;;;;;;5089609;28;20193;-70
2023/01/25 11:35:14;;;;;;;51.53;20.23;;;3.60;99.90;;;;;;5091856;28;20196;-70
2023/01/25 11:37:58;;;;;;;45.37;20.10;;;3.80;99.90;;;;;;5076879;28;20300;-71
2023/01/25 11:40:40;;;;;;;47.63;21.83;;;3.80;99.90;;;;;;5073129;28;20181;-70
2023/01/25 11:43:18;;;;;;;44.90;21.00;;;3.70;99.90;;;;;;5086300;28;20173;-71
2023/01/25 11:46:14;;;;;;;46.50;23.37;;;3.60;99.90;;;;;;5089621;28;20209;-69
2023/01/25 11:48:49;;;;;;;43.07;19.53;;;3.40;99.90;;;;;;5083107;28;20184;-70
2023/01/25 11:51:24;;;;;;;47.73;22.07;;;3.60;99.90;;;;;;5085660;28;20754;-69
2023/01/25 11:53:58;;;;;;;44.87;20.10;;;3.60;99.90;;;;;;5080800;28;20202;-70
2023/01/25 11:56:39;;;;;;;71.43;26.70;;;3.70;99.90;;;;;;5077392;28;21222;-70
2023/01/25 11:59:17;;;;;;;41.40;20.93;;;3.80;99.90;;;;;;5079391;28;20185;-71
2023/01/25 12:02:09;;;;;;;52.67;23.87;;;3.90;99.90;;;;;;5080621;28;20181;-69
2023/01/25 12:04:50;;;;;;;45.10;22.07;;;3.90;99.90;;;;;;5073874;28;20684;-71
2023/01/25 12:07:40;;;;;;;48.63;23.07;;;3.80;99.90;;;;;;5072728;28;20644;-70
2023/01/25 12:10:47;;;;;;;48.77;21.23;;;3.70;99.90;;;;;;5080901;28;20220;-70
2023/01/25 12:13:16;;;;;;;46.50;21.20;;;3.60;99.90;;;;;;5077274;28;20196;-71
2023/01/25 12:16:12;;;;;;;54.50;22.70;;;3.60;99.90;;;;;;5091724;28;20189;-71
2023/01/25 12:19:02;;;;;;;46.67;20.30;;;3.60;99.90;;;;;;5084233;28;20669;-70
2023/01/25 12:21:50;;;;;;;45.00;21.40;;;3.50;99.90;;;;;;5120154;28;20185;-70
2023/01/25 12:24:16;;;;;;;42.27;20.13;;;3.50;99.90;;;;;;5074163;28;20503;-70
2023/01/25 12:27:13;;;;;;;47.53;21.17;;;3.40;99.90;;;;;;5083640;28;20194;-70
2023/01/25 12:30:01;;;;;;;53.90;21.23;;;3.50;99.90;;;;;;5076034;28;20641;-70
2023/01/25 12:32:37;;;;;;;61.30;28.00;;;3.50;99.90;;;;;;5075210;28;20177;-70
2023/01/25 12:35:16;;;;;;;53.73;21.63;;;3.50;99.90;;;;;;5087189;28;20184;-72
2023/01/25 12:37:44;;;;;;;46.27;21.73;;;3.50;99.90;;;;;;5073816;28;20205;-62
2023/01/25 12:40:35;;;;;;;53.13;19.93;;;3.40;99.90;;;;;;5085444;28;20185;-71
2023/01/25 12:43:01;;;;;;;38.13;18.10;;;3.30;99.90;;;;;;5086184;28;20185;-71
2023/01/25 12:45:31;;;;;;;51.80;23.27;;;3.40;99.90;;;;;;5108376;28;20728;-71
2023/01/25 12:48:03;;;;;;;47.77;20.40;;;3.50;99.90;;;;;;5075415;28;20593;-71
2023/01/25 12:50:44;;;;;;;52.57;22.10;;;3.40;99.90;;;;;;5087377;28;20196;-71
2023/01/25 12:53:16;;;;;;;48.07;19.77;;;3.30;99.90;;;;;;5124276;27;20184;-69